createdAt,value
2023-01-19T00:01:32.662Z,98361.69
2023-01-19T00:04:00.122Z,98359.72
2023-01-19T00:06:27.961Z,98371.22
2023-01-19T00:08:55.490Z,98360.38
2023-01-19T00:11:23.055Z,98363.81
2023-01-19T00:13:51.114Z,98357.69
2023-01-19T00:16:22.804Z,98356.00
2023-01-19T00:18:51.962Z,98347.53
2023-01-19T00:21:21.434Z,98366.22
2023-01-19T00:23:51.119Z,98362.81
2023-01-19T00:26:19.142Z,98366.75
2023-01-19T00:28:47.134Z,98366.75
2023-01-19T00:31:14.686Z,98365.25
2023-01-19T00:33:43.592Z,98365.56
2023-01-19T00:36:11.462Z,98374.19
2023-01-19T00:38:39.633Z,98365.69
2023-01-19T00:41:07.345Z,98367.88
2023-01-19T00:43:34.051Z,98366.97
2023-01-19T00:46:01.751Z,98365.25
2023-01-19T00:48:29.450Z,98357.38
2023-01-19T00:50:59.908Z,98366.84
2023-01-19T00:53:29.097Z,98364.13
2023-01-19T00:55:56.581Z,98368.56
2023-01-19T00:58:24.080Z,98366.84
2023-01-19T01:00:54.711Z,98374.66
2023-01-19T01:03:28.080Z,98374.44
2023-01-19T01:05:55.764Z,98360.03
2023-01-19T01:08:24.775Z,98367.25
2023-01-19T01:10:52.495Z,98362.59
2023-01-19T01:13:22.332Z,98370.16
2023-01-19T01:15:50.761Z,98369.03
2023-01-19T01:18:18.310Z,98374.91
2023-01-19T01:20:45.823Z,98371.19
2023-01-19T01:23:14.057Z,98380.44
2023-01-19T01:25:43.410Z,98370.38
2023-01-19T01:28:11.181Z,98371.53
2023-01-19T01:30:40.897Z,98365.91
2023-01-19T01:33:08.658Z,98362.00
2023-01-19T01:35:36.354Z,98387.84
2023-01-19T01:38:04.349Z,98380.84
2023-01-19T01:40:31.934Z,98382.06
2023-01-19T01:43:02.636Z,98383.16
2023-01-19T01:45:33.835Z,98391.13
2023-01-19T01:48:09.486Z,98386.69
2023-01-19T01:51:02.657Z,98396.75
2023-01-19T01:53:31.688Z,98383.16
2023-01-19T01:56:00.918Z,98369.22
2023-01-19T01:58:29.846Z,98380.78
2023-01-19T02:01:15.086Z,98375.91
2023-01-19T02:03:42.729Z,98388.81
2023-01-19T02:06:11.207Z,98374.47
2023-01-19T02:09:02.465Z,98384.50
2023-01-19T02:11:49.108Z,98378.16
2023-01-19T02:14:18.898Z,98374.78
2023-01-19T02:16:47.095Z,98364.31
2023-01-19T02:19:19.200Z,98383.25
2023-01-19T02:21:53.940Z,98379.34
2023-01-19T02:24:23.513Z,98378.84
2023-01-19T02:26:52.091Z,98372.84
2023-01-19T02:29:21.834Z,98369.59
2023-01-19T02:31:49.348Z,98368.19
2023-01-19T02:34:19.766Z,98372.16
2023-01-19T02:36:53.337Z,98373.81
2023-01-19T02:39:29.002Z,98365.66
2023-01-19T02:42:02.668Z,98370.09
2023-01-19T02:44:31.518Z,98354.22
2023-01-19T02:46:59.050Z,98357.91
2023-01-19T02:49:29.624Z,98359.66
2023-01-19T02:51:57.333Z,98364.19
2023-01-19T02:54:48.454Z,98363.69
2023-01-19T02:57:32.468Z,98362.38
2023-01-19T03:00:13.475Z,98365.84
2023-01-19T03:02:53.378Z,98354.34
2023-01-19T03:05:34.024Z,98358.41
2023-01-19T03:08:09.169Z,98358.66
2023-01-19T03:10:47.049Z,98352.44
2023-01-19T03:13:19.959Z,98353.19
2023-01-19T03:15:51.038Z,98348.41
2023-01-19T03:18:23.356Z,98345.44
2023-01-19T03:20:54.122Z,98344.44
2023-01-19T03:23:25.932Z,98348.53
2023-01-19T03:25:57.810Z,98345.84
2023-01-19T03:28:28.230Z,98347.41
2023-01-19T03:30:59.905Z,98346.22
2023-01-19T03:33:30.509Z,98346.41
2023-01-19T03:36:03.489Z,98346.94
2023-01-19T03:38:36.226Z,98338.09
2023-01-19T03:41:10.638Z,98329.22
2023-01-19T03:43:39.929Z,98337.19
2023-01-19T03:46:09.128Z,98347.94
2023-01-19T03:48:36.975Z,98351.06
2023-01-19T03:51:05.658Z,98349.63
2023-01-19T03:53:33.398Z,98353.88
2023-01-19T03:56:00.936Z,98338.34
2023-01-19T03:58:30.018Z,98352.56
2023-01-19T04:00:57.984Z,98350.50
2023-01-19T04:03:25.530Z,98346.94
2023-01-19T04:05:53.088Z,98361.34
2023-01-19T04:08:20.592Z,98355.75
2023-01-19T04:10:48.082Z,98364.63
2023-01-19T04:13:15.562Z,98360.88
2023-01-19T04:15:44.420Z,98354.47
2023-01-19T04:18:11.951Z,98352.31
2023-01-19T04:20:39.459Z,98354.38
2023-01-19T04:23:07.231Z,98350.97
2023-01-19T04:25:34.720Z,98350.16
2023-01-19T04:28:02.183Z,98349.25
2023-01-19T04:30:29.656Z,98354.28
2023-01-19T04:33:00.161Z,98360.03
2023-01-19T04:35:28.542Z,98354.63
2023-01-19T04:37:56.058Z,98348.81
2023-01-19T04:40:23.725Z,98347.94
2023-01-19T04:42:51.222Z,98349.94
2023-01-19T04:45:18.937Z,98350.06
2023-01-19T04:47:46.390Z,98348.53
2023-01-19T04:50:15.187Z,98349.59
2023-01-19T04:52:42.663Z,98342.84
2023-01-19T04:55:11.210Z,98354.91
2023-01-19T04:57:38.848Z,98347.34
2023-01-19T05:00:07.659Z,98345.47
2023-01-19T05:02:35.687Z,98339.31
2023-01-19T05:05:03.723Z,98332.28
2023-01-19T05:07:32.670Z,98353.47
2023-01-19T05:10:00.131Z,98350.94
2023-01-19T05:12:27.766Z,98349.00
2023-01-19T05:14:55.234Z,98347.13
2023-01-19T05:17:22.708Z,98351.56
2023-01-19T05:19:50.417Z,98343.53
2023-01-19T05:22:18.137Z,98341.72
2023-01-19T05:24:46.961Z,98340.81
2023-01-19T05:27:14.418Z,98343.31
2023-01-19T05:29:42.033Z,98344.13
2023-01-19T05:32:09.504Z,98349.47
2023-01-19T05:34:37.105Z,98359.88
2023-01-19T05:37:04.599Z,98361.81
2023-01-19T05:39:32.138Z,98367.38
2023-01-19T05:42:01.012Z,98370.88
2023-01-19T05:44:28.485Z,98375.16
2023-01-19T05:46:56.432Z,98370.91
2023-01-19T05:49:23.943Z,98368.00
2023-01-19T05:51:51.404Z,98364.91
2023-01-19T05:54:18.902Z,98373.91
2023-01-19T05:56:46.560Z,98368.88
2023-01-19T05:59:17.384Z,98376.47
2023-01-19T06:01:45.095Z,98374.06
2023-01-19T06:04:12.600Z,98381.31
2023-01-19T06:06:40.324Z,98372.47
2023-01-19T06:09:08.243Z,98371.84
2023-01-19T06:11:35.696Z,98375.81
2023-01-19T06:14:03.352Z,98374.56
2023-01-19T06:16:32.308Z,98388.75
2023-01-19T06:19:00.243Z,98384.03
2023-01-19T06:21:27.726Z,98385.88
2023-01-19T06:23:55.209Z,98391.47
2023-01-19T06:26:22.713Z,98396.34
2023-01-19T06:28:53.287Z,98388.31
2023-01-19T06:31:20.857Z,98402.53
2023-01-19T06:33:50.216Z,98406.19
2023-01-19T06:36:17.683Z,98398.53
2023-01-19T06:38:45.183Z,98402.06
2023-01-19T06:41:12.727Z,98396.59
2023-01-19T06:43:40.193Z,98409.47
2023-01-19T06:46:07.818Z,98409.56
2023-01-19T06:48:35.295Z,98407.19
2023-01-19T06:51:05.886Z,98413.84
2023-01-19T06:53:33.946Z,98415.50
2023-01-19T06:56:03.955Z,98436.31
2023-01-19T06:58:34.663Z,98432.16
2023-01-19T07:01:03.175Z,98442.00
2023-01-19T07:03:31.328Z,98446.38
2023-01-19T07:06:02.202Z,98449.53
2023-01-19T07:08:31.197Z,98449.81
2023-01-19T07:11:23.612Z,98447.66
2023-01-19T07:13:51.444Z,98458.09
2023-01-19T07:16:19.551Z,98464.94
2023-01-19T07:18:49.800Z,98468.31
2023-01-19T07:21:17.559Z,98470.25
2023-01-19T07:23:49.172Z,98473.91
2023-01-19T07:26:18.557Z,98477.25
2023-01-19T07:28:47.407Z,98470.63
2023-01-19T07:31:16.433Z,98482.47
2023-01-19T07:33:44.065Z,98483.69
2023-01-19T07:36:12.110Z,98481.13
2023-01-19T07:38:39.636Z,98482.25
2023-01-19T07:41:10.339Z,98490.59
2023-01-19T07:43:37.884Z,98491.25
2023-01-19T07:46:06.711Z,98503.56
2023-01-19T07:48:34.578Z,98493.34
2023-01-19T07:51:05.217Z,98505.56
2023-01-19T07:53:32.870Z,98505.00
2023-01-19T07:56:00.568Z,98519.94
2023-01-19T07:58:30.397Z,98512.91
2023-01-19T08:00:58.079Z,98511.44
2023-01-19T08:03:25.696Z,98526.91
2023-01-19T08:05:54.282Z,98524.44
2023-01-19T08:08:21.962Z,98533.28
2023-01-19T08:10:51.343Z,98539.44
2023-01-19T08:13:18.999Z,98538.81
2023-01-19T08:15:50.575Z,98551.88
2023-01-19T08:18:18.469Z,98554.91
2023-01-19T08:20:46.915Z,98558.16
2023-01-19T08:23:14.394Z,98561.69
2023-01-19T08:25:45.131Z,98568.13
2023-01-19T08:28:14.590Z,98569.56
2023-01-19T08:30:43.836Z,98564.47
2023-01-19T08:33:12.900Z,98559.63
2023-01-19T08:35:41.868Z,98567.84
2023-01-19T08:38:10.835Z,98571.78
2023-01-19T08:40:40.163Z,98576.69
2023-01-19T08:43:09.546Z,98588.31
2023-01-19T08:45:37.927Z,98593.78
2023-01-19T08:48:06.243Z,98600.78
2023-01-19T08:50:35.541Z,98596.66
2023-01-19T08:53:06.535Z,98602.00
2023-01-19T08:55:35.111Z,98598.97
2023-01-19T08:58:04.121Z,98607.25
2023-01-19T09:00:33.597Z,98610.72
2023-01-19T09:03:03.947Z,98607.81
2023-01-19T09:05:35.461Z,98608.25
2023-01-19T09:08:05.119Z,98621.50
2023-01-19T09:10:35.837Z,98624.06
2023-01-19T09:13:04.196Z,98626.28
2023-01-19T09:15:33.811Z,98630.22
2023-01-19T09:18:02.281Z,98631.69
2023-01-19T09:20:30.976Z,98636.78
2023-01-19T09:22:59.305Z,98641.84
2023-01-19T09:25:28.605Z,98641.22
2023-01-19T09:27:56.141Z,98649.81
2023-01-19T09:30:23.674Z,98652.69
2023-01-19T09:32:51.150Z,98658.19
2023-01-19T09:35:18.650Z,98662.72
2023-01-19T09:37:47.235Z,98659.72
2023-01-19T09:40:17.214Z,98656.09
2023-01-19T09:42:51.576Z,98661.25
2023-01-19T09:45:23.868Z,98668.50
2023-01-19T09:47:53.130Z,98661.03
2023-01-19T09:50:28.364Z,98669.72
2023-01-19T09:53:01.305Z,98679.03
2023-01-19T09:55:29.405Z,98684.50
2023-01-19T09:57:58.735Z,98683.56
2023-01-19T10:00:29.656Z,98686.00
2023-01-19T10:03:04.019Z,98690.00
2023-01-19T10:05:38.202Z,98690.09
2023-01-19T10:08:22.866Z,98693.88
2023-01-19T10:10:54.938Z,98691.53
2023-01-19T10:13:38.909Z,98692.59
2023-01-19T10:16:20.090Z,98696.31
2023-01-19T10:18:51.485Z,98699.34
2023-01-19T10:21:21.975Z,98696.50
2023-01-19T10:23:54.549Z,98703.34
2023-01-19T10:26:26.327Z,98707.31
2023-01-19T10:29:02.867Z,98706.31
2023-01-19T10:31:30.570Z,98708.34
2023-01-19T10:33:58.895Z,98712.28
2023-01-19T10:36:30.383Z,98714.66
2023-01-19T10:38:59.049Z,98715.88
2023-01-19T10:41:32.541Z,98723.72
2023-01-19T10:44:02.880Z,98725.44
2023-01-19T10:46:38.269Z,98726.13
2023-01-19T10:49:07.759Z,98727.75
2023-01-19T10:51:45.318Z,98722.00
2023-01-19T10:54:14.246Z,98734.00
2023-01-19T10:56:42.107Z,98732.69
2023-01-19T10:59:33.873Z,98745.81
2023-01-19T11:02:17.440Z,98735.00
2023-01-19T11:04:48.997Z,98740.59
2023-01-19T11:07:21.415Z,98743.28
2023-01-19T11:09:49.849Z,98734.88
2023-01-19T11:12:21.922Z,98735.78
2023-01-19T11:14:54.117Z,98735.75
2023-01-19T11:17:25.043Z,98741.50
2023-01-19T11:20:01.112Z,98741.59
2023-01-19T11:22:31.319Z,98737.75
2023-01-19T11:25:01.461Z,98746.09
2023-01-19T11:27:30.953Z,98743.72
2023-01-19T11:30:09.662Z,98748.69
2023-01-19T11:32:37.869Z,98750.09
2023-01-19T11:35:33.005Z,98745.00
2023-01-19T11:38:08.362Z,98739.84
2023-01-19T11:40:36.608Z,98754.91
2023-01-19T11:43:04.234Z,98739.72
2023-01-19T11:45:34.983Z,98743.34
2023-01-19T11:48:05.894Z,98743.97
2023-01-19T11:50:39.834Z,98746.13
2023-01-19T11:53:14.240Z,98748.03
2023-01-19T11:55:50.013Z,98750.06
2023-01-19T11:58:19.168Z,98749.00
2023-01-19T12:00:52.434Z,98759.69
2023-01-19T12:03:24.800Z,98752.44
2023-01-19T12:05:56.325Z,98753.81
2023-01-19T12:08:26.873Z,98754.41
2023-01-19T12:10:57.843Z,98749.47
2023-01-19T12:13:27.616Z,98745.34
2023-01-19T12:16:01.921Z,98745.19
2023-01-19T12:18:33.488Z,98752.03
2023-01-19T12:21:03.921Z,98745.09
2023-01-19T12:23:44.851Z,98740.31
2023-01-19T12:26:28.220Z,98747.44
2023-01-19T12:29:00.963Z,98748.63
2023-01-19T12:31:30.012Z,98754.34
2023-01-19T12:34:32.057Z,98753.31
2023-01-19T12:37:04.598Z,98747.59
2023-01-19T12:39:33.178Z,98755.88
2023-01-19T12:42:13.543Z,98748.72
2023-01-19T12:44:42.580Z,98745.78
2023-01-19T12:47:24.127Z,98755.09
2023-01-19T12:49:54.942Z,98750.69
2023-01-19T12:52:30.691Z,98743.19
2023-01-19T12:55:15.235Z,98746.16
2023-01-19T12:57:50.138Z,98752.44
2023-01-19T13:00:39.515Z,98747.88
2023-01-19T13:03:40.480Z,98757.81
2023-01-19T13:06:09.328Z,98751.72
2023-01-19T13:08:58.638Z,98756.09
2023-01-19T13:11:29.357Z,98760.78
2023-01-19T13:14:34.769Z,98758.09
2023-01-19T13:17:27.873Z,98766.84
2023-01-19T13:20:24.029Z,98758.19
2023-01-19T13:23:21.315Z,98771.34
2023-01-19T13:25:54.413Z,98764.97
2023-01-19T13:28:31.279Z,98769.28
2023-01-19T13:31:02.503Z,98761.00
2023-01-19T13:33:40.653Z,98785.22
2023-01-19T13:36:19.596Z,98775.13
2023-01-19T13:38:48.478Z,98781.09
2023-01-19T13:41:19.869Z,98779.59
2023-01-19T13:43:49.320Z,98781.00
2023-01-19T13:46:18.961Z,98774.81
2023-01-19T13:48:56.169Z,98779.84
2023-01-19T13:51:24.011Z,98777.31
2023-01-19T13:53:55.502Z,98789.66
2023-01-19T13:56:27.691Z,98787.97
2023-01-19T13:59:06.900Z,98785.91
2023-01-19T14:01:34.611Z,98790.03
2023-01-19T14:04:02.264Z,98798.41
2023-01-19T14:06:36.108Z,98797.09
2023-01-19T14:09:08.172Z,98796.81
2023-01-19T14:11:37.150Z,98796.56
2023-01-19T14:14:04.737Z,98801.16
2023-01-19T14:16:32.265Z,98796.13
2023-01-19T14:19:01.151Z,98809.75
2023-01-19T14:21:39.163Z,98804.25
2023-01-19T14:24:08.824Z,98800.25
2023-01-19T14:26:48.721Z,98804.38
2023-01-19T14:29:19.549Z,98810.44
2023-01-19T14:31:49.009Z,98808.06
2023-01-19T14:34:38.618Z,98813.25
2023-01-19T14:37:14.148Z,98810.53
2023-01-19T14:39:47.032Z,98817.41
2023-01-19T14:42:21.589Z,98819.94
2023-01-19T14:44:52.175Z,98817.16
2023-01-19T14:47:34.029Z,98821.59
2023-01-19T14:50:07.421Z,98819.56
2023-01-19T14:52:39.293Z,98826.56
2023-01-19T14:55:09.965Z,98832.13
2023-01-19T14:57:39.049Z,98834.78
2023-01-19T15:00:17.362Z,98836.66
2023-01-19T15:02:45.424Z,98827.09
2023-01-19T15:05:13.330Z,98838.19
2023-01-19T15:07:44.148Z,98829.31
2023-01-19T15:10:18.119Z,98838.97
2023-01-19T15:12:47.418Z,98835.41
2023-01-19T15:15:22.547Z,98833.44
2023-01-19T15:17:50.792Z,98835.78
2023-01-19T15:20:19.625Z,98836.53
2023-01-19T15:22:47.795Z,98844.22
2023-01-19T15:25:16.666Z,98845.25
2023-01-19T15:27:45.269Z,98846.50
2023-01-19T15:30:20.505Z,98846.06
2023-01-19T15:32:48.973Z,98856.78
2023-01-19T15:35:18.012Z,98857.41
2023-01-19T15:37:45.875Z,98852.88
2023-01-19T15:40:14.508Z,98855.69
2023-01-19T15:42:42.472Z,98848.88
2023-01-19T15:45:32.160Z,98858.56
2023-01-19T15:47:59.875Z,98859.59
2023-01-19T15:50:27.808Z,98867.34
2023-01-19T15:52:55.295Z,98864.47
2023-01-19T15:55:23.125Z,98875.00
2023-01-19T15:57:50.669Z,98871.41
2023-01-19T16:00:20.216Z,98870.50
2023-01-19T16:02:50.070Z,98869.44
2023-01-19T16:05:17.672Z,98876.53
2023-01-19T16:07:45.409Z,98873.81
2023-01-19T16:10:13.453Z,98882.72
2023-01-19T16:12:40.995Z,98879.72
2023-01-19T16:15:09.586Z,98881.13
2023-01-19T16:17:38.625Z,98882.84
2023-01-19T16:20:07.313Z,98890.03
2023-01-19T16:22:35.054Z,98887.44
2023-01-19T16:25:02.568Z,98889.50
2023-01-19T16:27:30.521Z,98887.38
2023-01-19T16:29:59.795Z,98893.34
2023-01-19T16:32:27.305Z,98896.97
2023-01-19T16:34:56.231Z,98895.88
2023-01-19T16:37:23.725Z,98899.28
2023-01-19T16:39:51.528Z,98898.13
2023-01-19T16:42:19.312Z,98898.28
2023-01-19T16:44:46.839Z,98907.19
2023-01-19T16:47:14.335Z,98909.75
2023-01-19T16:49:41.806Z,98906.66
2023-01-19T16:52:10.682Z,98916.06
2023-01-19T16:54:39.467Z,98911.81
2023-01-19T16:57:06.997Z,98925.19
2023-01-19T16:59:35.106Z,98920.06
2023-01-19T17:02:03.125Z,98925.50
2023-01-19T17:04:30.688Z,98927.16
2023-01-19T17:06:58.553Z,98928.03
2023-01-19T17:09:27.380Z,98935.94
2023-01-19T17:11:54.897Z,98940.16
2023-01-19T17:14:22.529Z,98944.31
2023-01-19T17:16:50.778Z,98944.31
2023-01-19T17:19:20.440Z,98946.75
2023-01-19T17:21:49.544Z,98951.06
2023-01-19T17:24:17.902Z,98953.34
2023-01-19T17:26:48.575Z,98949.31
2023-01-19T17:29:16.750Z,98950.69
2023-01-19T17:31:45.818Z,98947.03
2023-01-19T17:34:13.450Z,98961.09
2023-01-19T17:36:40.971Z,98955.63
2023-01-19T17:39:14.439Z,98965.94
2023-01-19T17:41:42.018Z,98963.47
2023-01-19T17:44:11.514Z,98957.41
2023-01-19T17:46:39.743Z,98964.34
2023-01-19T17:49:08.659Z,98960.03
2023-01-19T17:51:36.409Z,98961.00
2023-01-19T17:54:04.752Z,98964.44
2023-01-19T17:56:36.740Z,98966.00
2023-01-19T17:59:07.814Z,98966.16
2023-01-19T18:01:39.746Z,98963.44
2023-01-19T18:04:08.375Z,98972.03
2023-01-19T18:06:35.921Z,98971.91
2023-01-19T18:09:04.835Z,98971.66
2023-01-19T18:11:32.334Z,98968.16
2023-01-19T18:14:00.669Z,98973.78
2023-01-19T18:16:29.958Z,98980.25
2023-01-19T18:18:59.202Z,98970.66
2023-01-19T18:21:28.706Z,98977.69
2023-01-19T18:24:01.426Z,98977.72
2023-01-19T18:26:29.654Z,98974.22
2023-01-19T18:28:57.963Z,98973.28
2023-01-19T18:31:26.868Z,98974.06
2023-01-19T18:33:54.821Z,98972.09
2023-01-19T18:36:23.854Z,98976.50
2023-01-19T18:38:51.595Z,98979.06
2023-01-19T18:41:20.853Z,98969.25
2023-01-19T18:43:49.069Z,98969.94
2023-01-19T18:46:17.338Z,98982.63
2023-01-19T18:48:44.934Z,98980.00
2023-01-19T18:51:14.856Z,98974.66
2023-01-19T18:53:43.966Z,98977.31
2023-01-19T18:56:13.490Z,98990.56
2023-01-19T18:58:41.275Z,98981.44
2023-01-19T19:01:20.093Z,98992.16
2023-01-19T19:03:47.680Z,98986.56
2023-01-19T19:06:16.685Z,98995.22
2023-01-19T19:08:45.507Z,98996.81
2023-01-19T19:11:14.223Z,98998.31
2023-01-19T19:13:41.987Z,98997.31
2023-01-19T19:16:11.535Z,98991.53
2023-01-19T19:18:39.917Z,98995.94
2023-01-19T19:21:08.474Z,98999.59
2023-01-19T19:23:36.619Z,98999.84
2023-01-19T19:26:07.290Z,98996.00
2023-01-19T19:28:36.471Z,98995.78
2023-01-19T19:31:08.333Z,99001.72
2023-01-19T19:33:36.390Z,99002.72
2023-01-19T19:36:04.578Z,98990.09
2023-01-19T19:38:32.487Z,99003.28
2023-01-19T19:41:05.295Z,99008.00
2023-01-19T19:43:34.236Z,99005.63
2023-01-19T19:46:03.233Z,99008.41
2023-01-19T19:48:31.039Z,99009.56
2023-01-19T19:51:17.087Z,99012.25
2023-01-19T19:53:45.496Z,99013.22
2023-01-19T19:56:14.228Z,99006.94
2023-01-19T19:58:43.799Z,99010.88
2023-01-19T20:01:12.374Z,99014.75
2023-01-19T20:03:40.408Z,99011.78
2023-01-19T20:06:09.891Z,99020.72
2023-01-19T20:08:37.686Z,99020.66
2023-01-19T20:11:07.377Z,99018.09
2023-01-19T20:13:35.548Z,99022.44
2023-01-19T20:16:05.985Z,99024.22
2023-01-19T20:18:34.170Z,99023.34
2023-01-19T20:21:01.739Z,99033.97
2023-01-19T20:23:29.274Z,99036.72
2023-01-19T20:25:56.755Z,99034.53
2023-01-19T20:28:24.250Z,99045.66
2023-01-19T20:30:51.925Z,99038.97
2023-01-19T20:33:20.965Z,99038.91
2023-01-19T20:35:48.444Z,99042.41
2023-01-19T20:38:15.950Z,99044.13
2023-01-19T20:40:43.389Z,99052.00
2023-01-19T20:43:10.867Z,99050.22
2023-01-19T20:45:38.353Z,99053.41
2023-01-19T20:48:06.210Z,99056.69
2023-01-19T20:50:35.237Z,99064.78
2023-01-19T20:53:02.734Z,99059.44
2023-01-19T20:55:33.350Z,99065.72
2023-01-19T20:58:01.362Z,99063.94
2023-01-19T21:00:29.125Z,99070.06
2023-01-19T21:02:56.978Z,99075.19
2023-01-19T21:05:25.226Z,99070.81
2023-01-19T21:07:54.270Z,99079.63
2023-01-19T21:10:22.880Z,99079.19
2023-01-19T21:12:50.380Z,99087.59
2023-01-19T21:15:18.581Z,99091.97
2023-01-19T21:17:46.139Z,99092.09
2023-01-19T21:20:14.198Z,99099.13
2023-01-19T21:22:41.663Z,99099.06
2023-01-19T21:25:11.473Z,99108.25
2023-01-19T21:27:39.141Z,99104.13
2023-01-19T21:30:07.702Z,99100.47
2023-01-19T21:32:36.341Z,99110.03
2023-01-19T21:35:03.999Z,99109.09
2023-01-19T21:37:31.670Z,99118.44
2023-01-19T21:39:59.148Z,99117.63
2023-01-19T21:42:28.003Z,99120.91
2023-01-19T21:44:55.493Z,99121.72
2023-01-19T21:47:22.980Z,99124.22
2023-01-19T21:49:50.460Z,99129.50
2023-01-19T21:52:17.941Z,99130.84
2023-01-19T21:54:45.391Z,99133.31
2023-01-19T21:57:15.042Z,99141.97
2023-01-19T21:59:43.880Z,99138.09
2023-01-19T22:02:12.510Z,99135.66
2023-01-19T22:04:40.551Z,99146.00
2023-01-19T22:07:08.159Z,99152.00
2023-01-19T22:09:35.863Z,99152.84
2023-01-19T22:12:03.614Z,99157.28
2023-01-19T22:14:31.090Z,99163.31
2023-01-19T22:16:59.945Z,99157.66
2023-01-19T22:19:27.743Z,99160.03
2023-01-19T22:21:55.288Z,99161.56
2023-01-19T22:24:22.755Z,99166.66
2023-01-19T22:26:50.287Z,99166.72
2023-01-19T22:29:17.783Z,99169.34
2023-01-19T22:31:45.741Z,99167.53
2023-01-19T22:34:17.132Z,99171.84
2023-01-19T22:36:44.637Z,99168.94
2023-01-19T22:39:13.465Z,99172.63
2023-01-19T22:41:42.317Z,99168.31
2023-01-19T22:44:12.273Z,99176.94
2023-01-19T22:46:40.076Z,99177.50
2023-01-19T22:49:09.001Z,99168.75
2023-01-19T22:51:37.841Z,99161.94
2023-01-19T22:54:05.720Z,99170.69
2023-01-19T22:56:34.768Z,99176.03
2023-01-19T22:59:03.058Z,99173.34
2023-01-19T23:01:33.301Z,99182.13
2023-01-19T23:04:02.057Z,99181.38
2023-01-19T23:06:31.051Z,99181.19
2023-01-19T23:09:01.273Z,99186.03
2023-01-19T23:11:31.066Z,99193.34
2023-01-19T23:13:58.917Z,99187.75
2023-01-19T23:16:27.007Z,99182.34
2023-01-19T23:18:55.688Z,99192.13
2023-01-19T23:21:25.177Z,99192.13
2023-01-19T23:23:54.567Z,99195.13
2023-01-19T23:26:24.520Z,99195.25
2023-01-19T23:28:55.792Z,99199.94
2023-01-19T23:31:26.133Z,99205.00
2023-01-19T23:33:55.238Z,99205.31
2023-01-19T23:36:24.739Z,99206.91
2023-01-19T23:38:54.259Z,99207.28
2023-01-19T23:41:24.234Z,99204.31
2023-01-19T23:43:51.807Z,99201.59
2023-01-19T23:46:20.499Z,99203.69
2023-01-19T23:48:48.551Z,99201.84
2023-01-19T23:51:18.259Z,99210.75
2023-01-19T23:53:46.369Z,99213.03
2023-01-19T23:56:17.360Z,99215.00
2023-01-19T23:58:47.531Z,99224.41
